Aurora, Indiana
Current Conditions -  °F | °C
As of 10:52 AM on Friday 31 Oct 2014 (Local Time) from KCVG Reporting Station
Overcast Overcast  
Wind Chill: 45°   Ceiling: 4500
Heat Index: 48°   Visibility: 10mi
Dew Point: 40°   Wind: 7mph
Humidity: 74%   Direction: 260°W
Pressure: 29.95"   Gusts: NA
Location:  39.06°N, 84.9°W
Report Text: KCVG 311452Z 26006KT 10SM BKN045 OVC065 09/04 A2995 RMK AO2 SLP144 T00890044 58006
Loading
Personal Weather Stations






























Interactive Weather Map
Tropical Storm Tracking
New forecast layout! Learn more

10-Day Weather Forecast

Advertisements
Track Severe Weather on mobile